Aérodrome :
LOGIN :

S'inscrire | Disclaimer

   EN    FR    IT 

 










Légende :    VFR   VFR Marginal   IFR   IFR Intensif   IFR Très Intensif
Visi : 
Plafond : 
>= 8 km
>= 3000ft
5 à 8 km
1000 à 3000 ft
1500m à 5 km
500 à 1000 ft
800 à 1500m
200 à 500 ft
< 800m
< 200 ft
Symboles :   Orages  Brouillard  Fortes neiges  Fortes précipitations  Vent > 20 kt
SIGMETs :   Divers  Orages  Givrage  Turbulence  Onde Orograph.  Cendres Volcan.






- Altitude de l'aérodrome : 458 ft


LFSI - St-Dizier

DERNIER METAR :
  • 070630Z AUTO 21004KT 170V250 9999 BKN048 16/12 Q1024

METARs EXPIRÉS :
  • 070600Z AUTO 18003KT 150V220 CAVOK 16/12 Q1024
  • 070530Z AUTO 18002KT CAVOK 14/12 Q1024
  • 070500Z AUTO 00000KT CAVOK 13/11 Q1024
  • 070430Z AUTO VRB02KT CAVOK 12/10 Q1024
  • 070400Z AUTO 11003KT CAVOK 11/10 Q1024

TAF TAF LFSI
Valide du 07 à 03h jusqu'au 08 à 03h UTC


070200Z 0703/0803 VRB02KT CAVOK



MET'MAP, la Météo Aéronautique d'un coup d'oeil ! - Copyright ORBIFLY Décembre 2007 - Disclaimer

ORBIFLY MET'MAP TEAM :

Programmation & Développement : Alexandra Zaïnal
Sur une idée originale de : Baudouin d'Aumeries
Soutien technique & logistique : Manuel Goepfert
Assistance : Marc-Olivier Méhu




SOURCES & CREDITS :

   NOAA